Terminal Aerodrome Forecast
Issued by NWS

Home | Current Version | Previous Version | Text Only | Print | Product List | Glossary On
Versions: 1 2 3 4 5 6 7 8 9 10 11 12 13 14 15 16 17 18
000
FTPA31 PHFO 251356 AAA
TAFSTU
TAF AMD
NSTU 251356Z 2514/2612 13013KT P6SM VCSH SCT016 SCT040 BKN100
      TEMPO 2514/2516 -SHRA SCT004 BKN015 BKN035=

USA.gov is the U.S. government's official web portal to all federal, state and local government web resources and services.